Time;durP1;ratioP1;P1;durP2;ratioP2;P2;SDS_P1;SDS_P2;PMS_P1;PMS_P2;Temp;Humidity;BMP_temperature;BMP_pressure;BME280_temperature;BME280_humidity;BME280_pressure;Samples;Min_cycle;Max_cycle;Signal;HPM_P1;HPM_P2
2023/09/20 00:00:14;;;;;;;6.00;1.25;;;15.30;43.40;;;;;;6239077;23;20370;-71
2023/09/20 00:02:40;;;;;;;6.07;1.52;;;15.20;99.90;;;;;;6239325;23;20404;-72
2023/09/20 00:05:15;;;;;;;5.38;1.50;;;15.20;99.90;;;;;;6239720;23;20392;-72
2023/09/20 00:07:41;;;;;;;4.80;1.20;;;15.20;99.90;;;;;;6239566;23;20368;-72
2023/09/20 00:10:12;;;;;;;5.13;1.33;;;15.20;99.90;;;;;;6239190;23;20393;-72
2023/09/20 00:12:39;;;;;;;6.25;1.20;;;15.20;99.90;;;;;;6239524;23;20390;-72
2023/09/20 00:15:05;;;;;;;5.28;1.10;;;15.20;99.90;;;;;;6239346;23;20459;-72
2023/09/20 00:17:34;;;;;;;5.20;1.40;;;15.20;99.90;;;;;;6207601;23;20422;-72
2023/09/20 00:20:10;;;;;;;5.10;1.50;;;15.30;99.90;;;;;;6231903;23;20755;-72
2023/09/20 00:22:37;;;;;;;4.72;1.00;;;15.30;99.90;;;;;;6239087;23;20408;-72
2023/09/20 00:25:03;;;;;;;5.03;1.05;;;15.20;99.90;;;;;;6239481;23;20824;-72
2023/09/20 00:27:29;;;;;;;4.70;1.20;;;15.20;99.90;;;;;;6239530;23;20405;-72
2023/09/20 00:29:55;;;;;;;5.05;1.40;;;15.30;99.90;;;;;;6238213;23;21075;-72
2023/09/20 00:32:21;;;;;;;7.10;1.63;;;15.30;99.90;;;;;;6236990;23;20358;-72
2023/09/20 00:34:46;;;;;;;7.28;1.45;;;15.30;99.90;;;;;;6237448;23;20382;-72
2023/09/20 00:37:12;;;;;;;5.90;1.17;;;15.40;99.90;;;;;;6237158;23;20358;-71
2023/09/20 00:39:38;;;;;;;5.40;1.40;;;15.50;4.90;;;;;;6237444;23;20728;-72
2023/09/20 00:42:04;;;;;;;4.90;1.15;;;15.50;1.00;;;;;;6239406;23;20802;-72
2023/09/20 00:44:30;;;;;;;4.80;1.00;;;15.50;1.00;;;;;;6238998;23;20393;-72
2023/09/20 00:46:56;;;;;;;5.28;1.30;;;15.40;1.00;;;;;;6237974;23;20713;-72
2023/09/20 00:49:22;;;;;;;5.73;1.20;;;15.40;1.00;;;;;;6239243;23;20909;-72
2023/09/20 00:51:49;;;;;;;5.80;1.20;;;15.40;1.00;;;;;;6238264;23;22440;-72
2023/09/20 00:54:16;;;;;;;5.60;1.33;;;15.50;1.00;;;;;;6240046;23;20413;-73
2023/09/20 00:56:42;;;;;;;5.20;1.00;;;15.40;1.00;;;;;;6210511;23;20823;-72
2023/09/20 00:59:09;;;;;;;4.60;1.07;;;15.40;1.00;;;;;;6238950;23;20362;-72
2023/09/20 01:01:36;;;;;;;6.05;1.10;;;15.40;1.00;;;;;;6239548;23;20842;-72
2023/09/20 01:04:05;;;;;;;8.77;1.20;;;15.40;1.00;;;;;;6239198;23;20835;-72
2023/09/20 01:06:32;;;;;;;4.75;0.90;;;15.40;1.00;;;;;;6238058;23;20889;-72
2023/09/20 01:08:58;;;;;;;5.60;1.38;;;15.40;1.00;;;;;;6239521;23;20417;-72
2023/09/20 01:11:25;;;;;;;4.50;1.00;;;15.40;1.00;;;;;;6239255;23;20481;-72
2023/09/20 01:13:51;;;;;;;6.78;1.30;;;15.30;33.30;;;;;;6238940;23;20421;-72
2023/09/20 01:16:17;;;;;;;4.95;1.10;;;15.20;99.90;;;;;;6240096;23;20398;-72
2023/09/20 01:18:46;;;;;;;4.55;1.00;;;15.30;99.90;;;;;;6239018;23;20368;-72
2023/09/20 01:21:12;;;;;;;4.82;1.15;;;15.20;99.90;;;;;;6239023;23;20412;-72
2023/09/20 01:23:38;;;;;;;5.53;1.30;;;15.20;99.90;;;;;;6239422;23;20361;-72
2023/09/20 01:26:04;;;;;;;5.33;1.00;;;15.20;99.90;;;;;;6239018;23;20792;-72
2023/09/20 01:28:30;;;;;;;5.75;1.35;;;15.20;99.90;;;;;;6238841;23;20354;-72
2023/09/20 01:30:58;;;;;;;5.23;1.20;;;15.10;99.90;;;;;;6239337;23;20362;-72
2023/09/20 01:33:24;;;;;;;5.00;1.30;;;15.10;99.90;;;;;;6238879;23;20389;-72
2023/09/20 01:35:50;;;;;;;5.10;1.10;;;15.00;99.90;;;;;;6238806;23;20455;-71
2023/09/20 01:38:15;;;;;;;6.63;1.50;;;15.00;99.90;;;;;;6212840;23;20366;-72
2023/09/20 01:40:41;;;;;;;5.00;1.30;;;15.00;99.90;;;;;;6239078;23;20815;-72
2023/09/20 01:43:07;;;;;;;6.17;1.30;;;14.90;99.90;;;;;;6238625;23;20696;-72
2023/09/20 01:45:36;;;;;;;6.13;1.60;;;15.00;99.90;;;;;;6238774;23;20394;-71
2023/09/20 01:48:06;;;;;;;5.80;1.35;;;15.00;99.90;;;;;;6238671;23;20432;-71
2023/09/20 01:50:32;;;;;;;4.80;0.80;;;15.00;99.90;;;;;;6238734;23;20369;-71
2023/09/20 01:53:00;;;;;;;5.90;1.42;;;15.10;99.90;;;;;;6239015;23;20354;-72
2023/09/20 01:55:28;;;;;;;5.20;1.05;;;15.00;99.90;;;;;;6239443;23;20385;-72
2023/09/20 01:57:59;;;;;;;4.78;1.00;;;15.00;99.90;;;;;;6238469;23;20824;-72
2023/09/20 02:00:29;;;;;;;4.70;1.00;;;15.00;99.90;;;;;;6239183;23;20358;-72
2023/09/20 02:03:00;;;;;;;5.90;1.30;;;15.00;99.90;;;;;;6238823;23;20452;-72
2023/09/20 02:05:27;;;;;;;5.53;1.40;;;14.90;99.90;;;;;;6238929;23;20366;-72
2023/09/20 02:07:58;;;;;;;5.43;1.25;;;14.90;99.90;;;;;;6238981;23;20740;-72
2023/09/20 02:10:24;;;;;;;5.07;1.15;;;15.00;99.90;;;;;;6239092;23;20354;-72
2023/09/20 02:12:51;;;;;;;6.70;1.20;;;15.00;99.90;;;;;;6238430;23;20826;-72
2023/09/20 02:15:18;;;;;;;4.90;1.08;;;15.00;99.90;;;;;;6238875;23;20392;-72
2023/09/20 02:17:44;;;;;;;8.32;1.00;;;15.00;99.90;;;;;;6239077;23;20362;-72
2023/09/20 02:20:19;;;;;;;9.68;1.40;;;15.10;99.90;;;;;;6238760;23;20372;-72
2023/09/20 02:22:46;;;;;;;5.00;1.10;;;15.00;99.90;;;;;;6239397;23;20370;-72
2023/09/20 02:25:12;;;;;;;4.50;1.00;;;15.00;99.90;;;;;;6238528;23;20390;-72
2023/09/20 02:27:39;;;;;;;4.80;1.23;;;15.00;99.90;;;;;;6238430;23;20369;-72
2023/09/20 02:30:15;;;;;;;7.40;1.75;;;15.10;99.90;;;;;;6238170;23;20362;-72
2023/09/20 02:32:44;;;;;;;5.80;1.20;;;15.20;99.90;;;;;;6238488;23;20824;-72
2023/09/20 02:35:10;;;;;;;5.70;1.40;;;15.10;99.90;;;;;;6238191;23;20393;-72
2023/09/20 02:37:37;;;;;;;5.07;1.20;;;15.10;99.90;;;;;;6237723;23;20807;-72
2023/09/20 02:40:19;;;;;;;4.90;1.20;;;15.00;99.90;;;;;;6236885;23;20377;-72
2023/09/20 02:42:52;;;;;;;4.90;1.10;;;15.00;99.90;;;;;;6237686;23;20436;-72
2023/09/20 02:45:19;;;;;;;5.18;1.25;;;15.00;99.90;;;;;;6238119;23;20684;-72
2023/09/20 02:47:48;;;;;;;5.85;1.30;;;15.00;99.90;;;;;;6238834;23;20846;-72
2023/09/20 02:50:22;;;;;;;4.80;0.70;;;15.00;99.90;;;;;;6238332;23;20366;-72
2023/09/20 02:52:48;;;;;;;5.60;1.13;;;15.00;1.00;;;;;;6238934;23;20493;-72
2023/09/20 02:55:15;;;;;;;5.10;1.20;;;15.00;99.90;;;;;;6237917;23;20440;-72
2023/09/20 02:57:41;;;;;;;5.53;1.02;;;15.10;99.90;;;;;;6240238;23;20354;-72
2023/09/20 03:00:15;;;;;;;5.47;1.40;;;15.10;99.90;;;;;;6239831;23;20420;-72
2023/09/20 03:02:45;;;;;;;5.38;1.40;;;15.10;99.90;;;;;;6239796;23;20366;-72
2023/09/20 03:05:23;;;;;;;5.10;1.30;;;15.20;99.90;;;;;;6240173;23;20412;-72
2023/09/20 03:07:50;;;;;;;4.80;1.20;;;15.20;99.90;;;;;;6240376;23;20362;-72
2023/09/20 03:10:19;;;;;;;5.40;1.40;;;15.20;99.90;;;;;;6240033;23;20357;-72
2023/09/20 03:12:46;;;;;;;5.05;1.58;;;15.30;99.90;;;;;;6240416;23;20369;-72
2023/09/20 03:15:21;;;;;;;8.02;1.05;;;15.30;99.90;;;;;;6240122;23;20385;-72
2023/09/20 03:17:52;;;;;;;4.90;0.90;;;15.30;99.90;;;;;;6240601;23;20385;-72
2023/09/20 03:20:22;;;;;;;5.18;1.30;;;15.30;99.90;;;;;;6240069;23;20363;-72
2023/09/20 03:22:50;;;;;;;5.20;1.40;;;15.40;99.90;;;;;;6240188;23;20401;-72
2023/09/20 03:25:19;;;;;;;7.40;1.20;;;15.40;99.90;;;;;;6240215;23;20357;-72
2023/09/20 03:27:45;;;;;;;4.70;1.10;;;15.40;99.90;;;;;;6240185;23;20440;-72
2023/09/20 03:30:13;;;;;;;5.20;1.10;;;15.40;99.90;;;;;;6239673;23;20862;-72
2023/09/20 03:32:40;;;;;;;6.23;1.17;;;15.40;99.90;;;;;;6239672;23;20381;-72
2023/09/20 03:35:06;;;;;;;5.20;1.20;;;15.30;99.90;;;;;;6239662;23;20411;-72
2023/09/20 03:37:33;;;;;;;5.15;0.90;;;15.30;99.90;;;;;;6239900;23;20377;-72
2023/09/20 03:39:59;;;;;;;5.07;1.20;;;15.20;99.90;;;;;;6238148;23;20386;-72
2023/09/20 03:42:24;;;;;;;5.32;1.48;;;15.20;99.90;;;;;;6239476;23;20700;-72
2023/09/20 03:44:50;;;;;;;5.00;1.00;;;15.10;99.90;;;;;;6207872;23;20356;-72
2023/09/20 03:47:16;;;;;;;4.80;1.30;;;15.20;99.90;;;;;;6234898;23;20824;-72
2023/09/20 03:49:42;;;;;;;5.20;1.20;;;15.10;99.90;;;;;;6238844;23;20672;-72
2023/09/20 03:52:08;;;;;;;5.40;1.35;;;15.10;99.90;;;;;;6239562;23;20384;-72
2023/09/20 03:54:33;;;;;;;4.80;1.20;;;15.00;99.90;;;;;;6239863;23;20417;-72
2023/09/20 03:56:59;;;;;;;7.30;1.90;;;15.00;1.00;;;;;;6240386;23;20373;-72
2023/09/20 03:59:26;;;;;;;5.37;1.30;;;15.00;99.90;;;;;;6238471;23;20412;-72
2023/09/20 04:01:52;;;;;;;5.68;1.25;;;15.00;1.00;;;;;;6240125;23;20373;-72
2023/09/20 04:04:18;;;;;;;4.90;1.20;;;14.80;1.00;;;;;;6240477;23;20731;-72
2023/09/20 04:06:47;;;;;;;4.70;1.00;;;14.70;1.00;;;;;;6239503;23;20396;-72
2023/09/20 04:09:13;;;;;;;5.90;1.40;;;14.60;1.00;;;;;;6239393;23;20385;-75
2023/09/20 04:11:41;;;;;;;4.63;1.00;;;14.70;1.00;;;;;;6237709;23;20889;-75
2023/09/20 04:14:08;;;;;;;7.20;1.52;;;14.80;1.00;;;;;;6238310;23;20354;-75
2023/09/20 04:16:36;;;;;;;4.40;1.00;;;14.80;1.00;;;;;;6238626;23;20366;-76
2023/09/20 04:19:02;;;;;;;5.90;1.40;;;14.80;1.00;;;;;;6238165;23;20841;-75
2023/09/20 04:21:28;;;;;;;4.60;1.10;;;14.80;1.00;;;;;;6239321;23;20774;-75
2023/09/20 04:23:53;;;;;;;5.97;1.53;;;14.90;1.00;;;;;;6238666;23;20362;-75
2023/09/20 04:26:19;;;;;;;5.38;1.10;;;15.00;1.00;;;;;;6238913;23;20385;-76
2023/09/20 04:28:44;;;;;;;5.00;1.40;;;15.00;1.00;;;;;;6240240;23;20497;-75
2023/09/20 04:31:10;;;;;;;7.43;1.60;;;15.10;1.00;;;;;;6238622;23;20365;-75
2023/09/20 04:33:36;;;;;;;5.10;1.30;;;15.10;1.00;;;;;;6238851;23;20362;-76
2023/09/20 04:36:04;;;;;;;6.13;1.33;;;15.10;99.90;;;;;;6239231;23;20715;-76
2023/09/20 04:38:30;;;;;;;9.20;1.88;;;14.90;1.00;;;;;;6239217;23;20370;-76
2023/09/20 04:40:56;;;;;;;5.22;1.38;;;14.80;1.00;;;;;;6237929;23;20369;-76
2023/09/20 04:43:22;;;;;;;6.50;1.50;;;14.70;1.00;;;;;;6239594;23;20370;-77
2023/09/20 04:45:48;;;;;;;5.60;1.67;;;14.60;1.00;;;;;;6241123;23;20362;-73
2023/09/20 04:48:13;;;;;;;6.30;1.17;;;14.70;1.00;;;;;;6247162;23;20887;-74
2023/09/20 04:50:39;;;;;;;6.53;1.50;;;14.70;1.00;;;;;;6241524;23;20378;-74
2023/09/20 04:53:04;;;;;;;7.70;2.00;;;14.80;1.00;;;;;;6242841;23;20362;-75
2023/09/20 04:55:33;;;;;;;5.07;1.30;;;14.80;1.00;;;;;;6249110;23;20472;-76
2023/09/20 04:57:59;;;;;;;4.50;1.08;;;14.90;1.00;;;;;;6243687;23;20410;-75
2023/09/20 05:00:33;;;;;;;5.60;1.10;;;14.90;1.00;;;;;;6248121;23;20369;-74
2023/09/20 05:02:59;;;;;;;6.57;1.40;;;15.00;1.00;;;;;;6240123;23;20397;-74
2023/09/20 05:05:25;;;;;;;5.32;1.40;;;15.00;1.00;;;;;;6239841;23;20832;-75
2023/09/20 05:07:52;;;;;;;5.25;1.30;;;15.00;1.00;;;;;;6239668;23;20393;-75
2023/09/20 05:10:18;;;;;;;5.00;1.30;;;15.00;1.00;;;;;;6240596;23;20408;-74
2023/09/20 05:12:43;;;;;;;5.20;1.50;;;15.10;1.00;;;;;;6239402;23;20752;-75
2023/09/20 05:15:12;;;;;;;6.43;1.43;;;15.20;1.00;;;;;;6238273;23;20953;-74
2023/09/20 05:17:39;;;;;;;6.55;1.33;;;15.20;99.90;;;;;;6238643;23;20354;-75
2023/09/20 05:20:06;;;;;;;6.47;1.13;;;15.30;99.90;;;;;;6237256;23;20377;-75
2023/09/20 05:22:31;;;;;;;5.07;1.50;;;15.30;99.90;;;;;;6239265;23;20376;-75
2023/09/20 05:24:57;;;;;;;6.60;2.10;;;15.20;99.90;;;;;;6238646;23;20808;-75
2023/09/20 05:27:23;;;;;;;10.52;1.80;;;15.20;99.90;;;;;;6237292;23;20741;-74
2023/09/20 05:29:50;;;;;;;6.77;1.40;;;15.30;99.90;;;;;;6240206;23;20377;-74
2023/09/20 05:32:16;;;;;;;6.80;1.63;;;15.30;99.90;;;;;;6239984;23;20386;-74
2023/09/20 05:34:46;;;;;;;6.47;1.70;;;15.30;99.90;;;;;;6239343;23;20432;-74
2023/09/20 05:37:12;;;;;;;5.93;1.45;;;15.40;99.90;;;;;;6239108;23;20712;-74
2023/09/20 05:39:38;;;;;;;5.43;1.57;;;15.60;99.90;;;;;;6239264;23;20697;-74
2023/09/20 05:42:05;;;;;;;5.88;1.60;;;15.70;99.90;;;;;;6238195;23;20362;-74
2023/09/20 05:44:31;;;;;;;6.13;1.63;;;15.90;99.90;;;;;;6237960;23;20432;-74
2023/09/20 05:46:58;;;;;;;5.70;1.60;;;16.00;26.60;;;;;;6238456;23;20463;-74
2023/09/20 05:49:24;;;;;;;8.05;1.90;;;16.00;1.00;;;;;;6238859;23;20983;-74
2023/09/20 05:51:52;;;;;;;5.40;1.70;;;16.10;1.00;;;;;;6239348;23;20353;-74
2023/09/20 05:54:21;;;;;;;6.25;1.95;;;16.20;1.00;;;;;;6240135;23;20813;-74
2023/09/20 05:56:47;;;;;;;5.88;1.48;;;16.50;1.00;;;;;;6240337;23;20728;-74
2023/09/20 05:59:13;;;;;;;5.20;1.40;;;17.00;1.90;;;;;;6212116;23;20851;-74
2023/09/20 06:01:40;;;;;;;6.68;2.33;;;17.70;91.80;;;;;;6239794;23;20366;-74
2023/09/20 06:04:12;;;;;;;6.50;2.00;;;18.20;1.00;;;;;;6238674;23;20404;-74
2023/09/20 06:06:38;;;;;;;8.02;2.10;;;19.40;99.90;;;;;;6237621;23;20358;-74
2023/09/20 06:09:04;;;;;;;6.27;1.70;;;21.10;99.90;;;;;;6238434;23;20681;-74
2023/09/20 06:11:29;;;;;;;10.43;2.30;;;22.40;1.00;;;;;;6239442;23;20362;-75
2023/09/20 06:13:55;;;;;;;6.50;1.80;;;23.20;1.00;;;;;;6239411;23;20393;-75
2023/09/20 06:16:22;;;;;;;6.55;2.13;;;24.30;1.00;;;;;;6239402;23;20465;-74
2023/09/20 06:18:48;;;;;;;7.65;2.03;;;25.20;99.90;;;;;;6240140;23;20358;-74
2023/09/20 06:21:15;;;;;;;9.20;1.85;;;26.60;99.90;;;;;;6238638;23;20449;-74
2023/09/20 06:23:40;;;;;;;6.60;1.70;;;26.60;99.90;;;;;;6207382;23;20426;-74
2023/09/20 06:26:12;;;;;;;7.47;2.23;;;25.00;99.90;;;;;;6222712;23;20823;-76
2023/09/20 06:28:43;;;;;;;5.80;1.70;;;23.40;99.90;;;;;;6243116;23;20366;-74
2023/09/20 06:31:15;;;;;;;7.00;1.95;;;21.80;99.90;;;;;;6239936;23;20435;-74
2023/09/20 06:33:42;;;;;;;6.13;1.90;;;20.70;99.90;;;;;;6240711;23;20843;-74
2023/09/20 06:36:08;;;;;;;7.22;2.20;;;20.20;1.00;;;;;;6240563;23;20382;-73
2023/09/20 06:38:36;;;;;;;6.10;1.40;;;19.80;1.00;;;;;;6239938;23;20368;-73
2023/09/20 06:41:02;;;;;;;7.80;2.15;;;19.70;1.00;;;;;;6240490;23;20658;-73
2023/09/20 06:43:27;;;;;;;7.27;1.80;;;19.60;98.80;;;;;;6241251;23;20401;-73
2023/09/20 06:45:53;;;;;;;7.57;2.00;;;19.60;99.90;;;;;;6242709;23;20353;-74
2023/09/20 06:48:24;;;;;;;6.90;1.90;;;19.50;99.90;;;;;;6241327;23;20471;-74
2023/09/20 06:50:50;;;;;;;6.85;2.15;;;19.30;99.90;;;;;;6240846;23;20377;-75
2023/09/20 06:53:17;;;;;;;6.13;1.75;;;19.10;1.00;;;;;;6240970;23;20436;-75
2023/09/20 06:55:43;;;;;;;7.20;2.30;;;19.00;1.00;;;;;;6240612;23;20382;-74
2023/09/20 06:58:08;;;;;;;7.37;1.80;;;19.10;1.00;;;;;;6209021;23;20656;-74
2023/09/20 07:00:35;;;;;;;5.95;1.80;;;19.40;99.90;;;;;;6232271;23;20362;-74
2023/09/20 07:03:02;;;;;;;6.20;1.55;;;19.70;99.90;;;;;;6240462;23;20812;-74
2023/09/20 07:05:28;;;;;;;5.88;1.50;;;20.30;99.90;;;;;;6240739;23;20685;-74
2023/09/20 07:07:54;;;;;;;9.50;1.60;;;21.00;1.00;;;;;;6240367;23;20369;-74
2023/09/20 07:10:21;;;;;;;6.23;1.50;;;21.60;1.00;;;;;;6240101;23;20392;-74
2023/09/20 07:12:46;;;;;;;5.80;1.52;;;22.50;1.00;;;;;;6241216;23;20360;-74
2023/09/20 07:15:19;;;;;;;7.30;1.80;;;;;;;;;;6240272;23;20414;-75
2023/09/20 07:17:46;;;;;;;6.80;1.65;;;;;;;;;;6240598;23;20887;-75
2023/09/20 07:20:17;;;;;;;7.38;1.40;;;;;;;;;;6240507;23;20751;-75
2023/09/20 07:22:44;;;;;;;6.10;1.63;;;29.00;99.90;;;;;;6239606;23;20865;-75
2023/09/20 07:25:19;;;;;;;9.82;1.85;;;28.90;99.90;;;;;;6240171;23;20433;-75
2023/09/20 07:27:49;;;;;;;6.97;1.90;;;28.90;99.90;;;;;;6240647;23;20401;-75
2023/09/20 07:30:20;;;;;;;5.82;1.42;;;27.80;99.90;;;;;;6241129;23;20362;-74
2023/09/20 07:32:55;;;;;;;6.10;1.20;;;27.30;99.90;;;;;;6240768;23;20495;-73
2023/09/20 07:35:27;;;;;;;9.10;1.70;;;26.30;99.90;;;;;;6239727;23;20390;-75
2023/09/20 07:37:57;;;;;;;8.10;1.60;;;25.20;99.90;;;;;;6240159;23;20444;-75
2023/09/20 07:40:33;;;;;;;5.90;1.30;;;24.20;99.90;;;;;;6240347;23;20440;-74
2023/09/20 07:43:03;;;;;;;7.97;1.70;;;23.60;99.90;;;;;;6240030;23;20419;-75
2023/09/20 07:45:38;;;;;;;5.90;1.73;;;23.20;99.90;;;;;;6240184;23;20362;-75
2023/09/20 07:48:12;;;;;;;6.60;1.90;;;22.70;99.90;;;;;;6240031;23;20354;-75
2023/09/20 07:50:40;;;;;;;7.40;1.83;;;22.60;99.90;;;;;;6239322;23;20358;-75
2023/09/20 07:53:10;;;;;;;7.40;1.60;;;22.60;99.90;;;;;;6240364;23;20358;-75
2023/09/20 07:55:36;;;;;;;5.70;1.35;;;22.80;99.90;;;;;;6238449;23;20836;-75
2023/09/20 07:58:01;;;;;;;5.60;1.37;;;23.10;99.90;;;;;;6240628;23;20357;-75
2023/09/20 08:00:27;;;;;;;6.07;1.60;;;23.30;99.90;;;;;;6240190;23;20370;-75
2023/09/20 08:02:54;;;;;;;6.30;1.80;;;23.50;99.90;;;;;;6240280;23;20354;-75
2023/09/20 08:05:22;;;;;;;8.82;1.85;;;23.40;99.90;;;;;;6239844;23;20388;-76
2023/09/20 08:07:47;;;;;;;11.02;1.90;;;23.80;99.90;;;;;;6241175;23;20369;-76
2023/09/20 08:10:13;;;;;;;5.30;1.20;;;23.80;99.90;;;;;;6240186;23;20700;-76
2023/09/20 08:12:39;;;;;;;4.78;0.98;;;24.00;99.90;;;;;;6240041;23;20720;-75
2023/09/20 08:15:05;;;;;;;6.15;1.55;;;24.00;99.90;;;;;;6239603;23;20421;-75
2023/09/20 08:20:20;;;;;;;5.50;0.98;;;24.10;99.90;;;;;;6240297;23;20369;-75
2023/09/20 09:01:17;;;;;;;5.05;0.90;;;29.50;99.90;;;;;;6240408;23;20364;-74
2023/09/20 09:03:43;;;;;;;5.00;1.00;;;30.90;99.90;;;;;;6239665;23;20411;-74
2023/09/20 09:06:08;;;;;;;5.00;0.93;;;30.30;99.90;;;;;;6239834;23;20365;-74
2023/09/20 09:08:34;;;;;;;5.70;1.40;;;28.70;99.90;;;;;;6239632;23;20396;-74
2023/09/20 09:11:00;;;;;;;8.93;1.23;;;28.80;99.90;;;;;;6240009;23;20362;-74
2023/09/20 09:13:25;;;;;;;6.40;1.13;;;28.20;99.90;;;;;;6239807;23;20726;-74
2023/09/20 09:15:51;;;;;;;4.95;0.90;;;27.90;99.90;;;;;;6239467;23;20426;-74
2023/09/20 09:18:20;;;;;;;5.93;1.53;;;27.50;99.90;;;;;;6240425;23;20839;-75
2023/09/20 09:20:46;;;;;;;5.57;1.23;;;27.70;99.90;;;;;;6240329;23;20846;-75
2023/09/20 09:23:22;;;;;;;5.78;1.00;;;29.40;99.90;;;;;;6213424;23;20374;-75
2023/09/20 09:25:47;;;;;;;5.20;0.93;;;31.10;99.90;;;;;;6240491;23;20350;-75
2023/09/20 09:28:15;;;;;;;6.10;1.50;;;32.70;99.90;;;;;;6239452;23;20428;-75
2023/09/20 09:30:42;;;;;;;5.68;1.10;;;33.40;99.90;;;;;;6239659;23;20354;-75
2023/09/20 09:33:12;;;;;;;6.95;1.60;;;34.90;99.90;;;;;;6239387;23;20412;-75
2023/09/20 09:35:38;;;;;;;6.75;1.02;;;36.00;99.90;;;;;;6239688;23;20377;-75
2023/09/20 09:38:04;;;;;;;4.88;0.90;;;34.80;99.90;;;;;;6208115;23;20717;-75
2023/09/20 09:40:30;;;;;;;6.70;1.77;;;34.20;99.90;;;;;;6233069;23;20440;-75
2023/09/20 09:43:10;;;;;;;5.57;0.90;;;34.70;99.90;;;;;;6239669;23;20366;-75
2023/09/20 09:45:36;;;;;;;5.50;1.00;;;34.60;99.90;;;;;;6239802;23;20357;-75
2023/09/20 09:48:06;;;;;;;5.50;1.10;;;34.40;99.90;;;;;;6239397;23;20362;-75
2023/09/20 09:50:38;;;;;;;5.20;0.70;;;34.60;99.90;;;;;;6239459;23;20396;-75
2023/09/20 09:53:06;;;;;;;6.37;1.20;;;34.30;99.90;;;;;;6239734;23;20665;-75
2023/09/20 09:55:31;;;;;;;6.40;1.40;;;35.50;99.90;;;;;;6239456;23;20823;-75
2023/09/20 09:57:57;;;;;;;5.30;0.87;;;35.70;99.90;;;;;;6239125;23;20401;-75
2023/09/20 10:00:26;;;;;;;6.43;1.00;;;35.00;99.90;;;;;;6239461;23;20365;-75
2023/09/20 10:02:54;;;;;;;5.30;1.00;;;35.10;99.90;;;;;;6239495;23;20373;-75
2023/09/20 10:05:20;;;;;;;5.57;1.02;;;35.60;99.90;;;;;;6239734;23;20445;-75
2023/09/20 10:07:52;;;;;;;6.13;1.40;;;35.90;99.90;;;;;;6241355;23;20365;-75
2023/09/20 10:10:22;;;;;;;6.15;1.38;;;36.30;99.90;;;;;;6241660;23;20364;-75
2023/09/20 10:12:48;;;;;;;6.27;1.20;;;36.60;99.90;;;;;;6241816;23;20370;-75
2023/09/20 10:15:15;;;;;;;6.57;1.45;;;35.80;99.90;;;;;;6240260;23;20903;-75
2023/09/20 10:17:54;;;;;;;5.70;1.30;;;34.40;99.90;;;;;;6240297;23;20824;-75
2023/09/20 10:20:22;;;;;;;6.70;1.20;;;33.90;99.90;;;;;;6240800;23;20452;-75
2023/09/20 10:22:49;;;;;;;6.20;1.40;;;34.30;99.90;;;;;;6241279;23;20366;-75
2023/09/20 10:25:48;;;;;;;6.80;1.20;;;34.00;99.90;;;;;;6241182;23;20388;-75
2023/09/20 10:28:17;;;;;;;6.50;1.00;;;34.30;99.90;;;;;;6136372;23;20771;-75
2023/09/20 10:31:04;;;;;;;6.17;1.10;;;34.10;99.90;;;;;;6240052;23;20436;-75
2023/09/20 10:34:00;;;;;;;5.20;1.00;;;34.50;99.90;;;;;;6240279;23;20376;-75
2023/09/20 10:36:30;;;;;;;5.80;1.20;;;33.80;99.90;;;;;;6239556;23;20500;-75
2023/09/20 10:39:17;;;;;;;5.60;1.00;;;33.50;99.90;;;;;;6240464;23;20365;-75
2023/09/20 10:41:44;;;;;;;5.20;1.00;;;33.40;99.90;;;;;;6241006;23;20419;-75
2023/09/20 10:44:29;;;;;;;5.53;1.08;;;33.60;99.90;;;;;;6240903;23;20465;-75
2023/09/20 10:46:58;;;;;;;6.93;0.90;;;33.50;99.90;;;;;;6240432;23;20358;-75
2023/09/20 10:49:40;;;;;;;5.13;1.00;;;33.60;99.90;;;;;;6240598;23;20358;-75
2023/09/20 10:52:06;;;;;;;5.90;1.10;;;33.80;99.90;;;;;;6240096;23;20358;-75
2023/09/20 10:54:36;;;;;;;5.40;1.13;;;33.70;99.90;;;;;;6240407;23;20384;-75
2023/09/20 10:57:09;;;;;;;7.03;1.30;;;34.00;99.90;;;;;;6240607;23;20362;-75
2023/09/20 10:59:36;;;;;;;5.10;1.05;;;34.00;99.90;;;;;;6213034;23;20462;-75
2023/09/20 11:02:08;;;;;;;5.80;1.00;;;34.00;99.90;;;;;;6240134;23;21055;-75
2023/09/20 11:04:36;;;;;;;5.80;1.10;;;33.30;99.90;;;;;;6240007;23;20361;-75
2023/09/20 11:07:02;;;;;;;5.82;1.52;;;33.30;99.90;;;;;;6240512;23;20455;-75
2023/09/20 11:09:33;;;;;;;6.25;1.38;;;33.00;99.90;;;;;;6240250;23;20834;-75
2023/09/20 11:12:06;;;;;;;5.55;1.30;;;32.70;99.90;;;;;;6240521;23;20362;-75
2023/09/20 11:14:37;;;;;;;5.93;1.45;;;32.80;99.90;;;;;;6239826;23;20416;-75
2023/09/20 11:17:05;;;;;;;5.72;1.40;;;32.70;99.90;;;;;;6239004;23;20832;-75
2023/09/20 11:19:31;;;;;;;7.50;1.75;;;32.10;99.90;;;;;;6240301;23;20365;-74
2023/09/20 11:21:57;;;;;;;6.10;1.10;;;31.20;99.90;;;;;;6240276;23;20389;-74
2023/09/20 11:24:24;;;;;;;6.30;1.17;;;30.90;99.90;;;;;;6240182;23;20382;-74
2023/09/20 11:26:55;;;;;;;5.35;1.20;;;29.60;99.90;;;;;;6240148;23;20354;-74
2023/09/20 11:29:21;;;;;;;5.78;1.40;;;29.10;99.90;;;;;;6240036;23;20358;-74
2023/09/20 11:31:48;;;;;;;5.85;1.30;;;29.20;99.90;;;;;;6240768;23;20373;-74
2023/09/20 11:34:14;;;;;;;6.38;1.40;;;29.30;99.90;;;;;;6240091;23;20460;-74
2023/09/20 11:36:44;;;;;;;6.13;1.30;;;29.50;99.90;;;;;;6239508;23;20377;-74
2023/09/20 11:39:14;;;;;;;6.60;1.60;;;29.60;99.90;;;;;;6239812;23;20358;-74
2023/09/20 11:41:42;;;;;;;6.17;1.70;;;29.90;99.90;;;;;;6239526;23;20350;-75
2023/09/20 11:44:08;;;;;;;6.00;1.30;;;29.90;99.90;;;;;;6238809;23;20350;-75
2023/09/20 11:46:34;;;;;;;5.50;1.30;;;29.90;99.90;;;;;;6239973;23;20871;-75
2023/09/20 11:49:08;;;;;;;7.88;1.23;;;29.70;99.90;;;;;;6240159;23;20739;-75
2023/09/20 11:51:36;;;;;;;6.40;1.40;;;29.30;99.90;;;;;;6236428;23;20719;-75
2023/09/20 11:54:05;;;;;;;5.90;1.70;;;29.20;99.90;;;;;;6239842;23;20365;-75
2023/09/20 11:56:34;;;;;;;5.95;1.42;;;29.60;99.90;;;;;;6240041;23;20464;-75
2023/09/20 11:59:09;;;;;;;6.40;1.52;;;29.60;99.90;;;;;;6239614;23;20362;-75
2023/09/20 12:01:40;;;;;;;8.00;1.60;;;29.30;99.90;;;;;;6239869;23;20366;-75
2023/09/20 12:04:07;;;;;;;5.80;1.50;;;29.40;99.90;;;;;;6239863;23;20354;-74
2023/09/20 12:06:32;;;;;;;6.68;1.80;;;29.50;99.90;;;;;;6240316;23;20452;-75
2023/09/20 12:09:01;;;;;;;6.13;1.70;;;29.50;99.90;;;;;;6239838;23;20455;-75
2023/09/20 12:11:26;;;;;;;5.30;1.30;;;29.50;99.90;;;;;;6239600;23;20352;-75
2023/09/20 12:13:52;;;;;;;6.18;1.40;;;29.00;99.90;;;;;;6239733;23;20358;-75
2023/09/20 12:16:18;;;;;;;6.90;1.70;;;29.00;99.90;;;;;;6240480;23;20382;-75
2023/09/20 12:18:44;;;;;;;6.30;1.60;;;29.00;99.90;;;;;;6240209;23;20436;-75
2023/09/20 12:21:10;;;;;;;8.00;1.50;;;28.90;99.90;;;;;;6240035;23;20881;-75
2023/09/20 12:23:38;;;;;;;5.78;1.40;;;29.00;99.90;;;;;;6240083;23;20802;-75
2023/09/20 12:26:04;;;;;;;6.13;1.50;;;29.30;99.90;;;;;;6239249;23;20481;-75
2023/09/20 12:28:30;;;;;;;5.85;1.60;;;29.00;99.90;;;;;;6239514;23;20396;-75
2023/09/20 12:30:58;;;;;;;7.25;1.60;;;28.80;99.90;;;;;;6240253;23;20362;-75
2023/09/20 12:33:24;;;;;;;5.40;1.03;;;28.90;99.90;;;;;;6239930;23;20354;-75
2023/09/20 12:35:54;;;;;;;5.70;1.57;;;29.20;99.90;;;;;;6240074;23;20392;-75
2023/09/20 12:38:20;;;;;;;5.68;1.60;;;29.50;99.90;;;;;;6240279;23;20440;-75
2023/09/20 12:40:46;;;;;;;6.30;1.47;;;29.60;99.90;;;;;;6239375;23;20397;-75
2023/09/20 12:43:12;;;;;;;5.57;1.48;;;29.70;99.90;;;;;;6239833;23;20790;-75
2023/09/20 12:45:38;;;;;;;6.60;1.60;;;29.30;99.90;;;;;;6240414;23;20361;-75
2023/09/20 12:48:05;;;;;;;6.20;1.40;;;29.30;99.90;;;;;;6239768;23;20354;-75
2023/09/20 12:50:36;;;;;;;5.60;1.40;;;29.10;99.90;;;;;;6239906;23;20361;-75
2023/09/20 12:53:04;;;;;;;5.45;1.30;;;29.10;99.90;;;;;;6240098;23;20373;-74
2023/09/20 12:55:31;;;;;;;5.53;1.00;;;29.20;99.90;;;;;;6239248;23;20824;-75
2023/09/20 12:57:56;;;;;;;6.63;1.60;;;29.20;99.90;;;;;;6239894;23;20369;-75
2023/09/20 13:00:22;;;;;;;6.10;1.37;;;29.40;99.90;;;;;;6240066;23;20680;-75
2023/09/20 13:02:47;;;;;;;5.40;1.30;;;29.40;99.90;;;;;;6240881;23;20697;-75
2023/09/20 13:05:13;;;;;;;5.47;1.25;;;29.20;99.90;;;;;;6239752;23;20437;-75
2023/09/20 13:07:39;;;;;;;5.70;1.23;;;29.30;99.90;;;;;;6239805;23;20366;-75
2023/09/20 13:10:13;;;;;;;6.18;1.50;;;29.00;99.90;;;;;;6239671;23;20789;-75
2023/09/20 13:12:39;;;;;;;8.90;1.55;;;29.10;99.90;;;;;;6239673;23;20412;-75
2023/09/20 13:15:10;;;;;;;6.15;1.50;;;29.10;99.90;;;;;;6239961;23;20816;-75
2023/09/20 13:17:39;;;;;;;5.57;1.10;;;29.00;99.90;;;;;;6239827;23;20358;-75
2023/09/20 13:20:05;;;;;;;7.40;1.50;;;29.10;99.90;;;;;;6239683;23;20358;-75
2023/09/20 13:22:31;;;;;;;5.30;1.33;;;29.40;99.90;;;;;;6239615;23;20369;-75
2023/09/20 13:24:56;;;;;;;5.40;1.40;;;29.30;99.90;;;;;;6207746;23;20368;-75
2023/09/20 13:27:23;;;;;;;6.07;1.55;;;29.20;99.90;;;;;;6227571;23;20865;-75
2023/09/20 13:29:49;;;;;;;6.88;1.63;;;29.00;99.90;;;;;;6240192;23;20385;-75
2023/09/20 13:32:14;;;;;;;6.78;1.60;;;29.00;99.90;;;;;;6240186;23;20362;-75
2023/09/20 13:34:40;;;;;;;7.90;1.70;;;29.20;99.90;;;;;;6239640;23;20396;-75